sensor_id;sensor_type;location;lat;lon;timestamp;P1;durP1;ratioP1;P2;durP2;ratioP2
34491;SDS011;20737;49.908;8.126;2023-02-24T00:00:24;30.67;;;13.10;;
34491;SDS011;20737;49.908;8.126;2023-02-24T00:05:31;33.42;;;12.32;;
34491;SDS011;20737;49.908;8.126;2023-02-24T00:08:01;27.67;;;11.65;;
34491;SDS011;20737;49.908;8.126;2023-02-24T00:10:28;32.10;;;12.57;;
34491;SDS011;20737;49.908;8.126;2023-02-24T00:12:54;24.92;;;10.77;;
34491;SDS011;20737;49.908;8.126;2023-02-24T00:15:21;31.52;;;12.13;;
34491;SDS011;20737;49.908;8.126;2023-02-24T00:17:50;30.02;;;12.15;;
34491;SDS011;20737;49.908;8.126;2023-02-24T00:20:18;28.33;;;11.68;;
34491;SDS011;20737;49.908;8.126;2023-02-24T00:22:45;28.60;;;12.30;;
34491;SDS011;20737;49.908;8.126;2023-02-24T00:25:12;32.63;;;11.15;;
34491;SDS011;20737;49.908;8.126;2023-02-24T00:27:39;31.77;;;11.45;;
34491;SDS011;20737;49.908;8.126;2023-02-24T00:30:07;27.38;;;10.65;;
34491;SDS011;20737;49.908;8.126;2023-02-24T00:32:36;29.15;;;11.52;;
34491;SDS011;20737;49.908;8.126;2023-02-24T00:35:03;26.85;;;10.57;;
34491;SDS011;20737;49.908;8.126;2023-02-24T00:37:34;24.23;;;10.35;;
34491;SDS011;20737;49.908;8.126;2023-02-24T00:40:07;34.83;;;12.13;;
34491;SDS011;20737;49.908;8.126;2023-02-24T00:42:36;26.25;;;10.10;;
34491;SDS011;20737;49.908;8.126;2023-02-24T00:45:04;25.67;;;9.38;;
34491;SDS011;20737;49.908;8.126;2023-02-24T00:47:35;31.67;;;10.82;;
34491;SDS011;20737;49.908;8.126;2023-02-24T00:50:04;24.08;;;8.68;;
34491;SDS011;20737;49.908;8.126;2023-02-24T00:52:33;24.35;;;9.18;;
34491;SDS011;20737;49.908;8.126;2023-02-24T00:55:01;27.85;;;10.70;;
34491;SDS011;20737;49.908;8.126;2023-02-24T00:57:29;28.25;;;11.00;;
34491;SDS011;20737;49.908;8.126;2023-02-24T00:59:57;24.35;;;9.52;;
34491;SDS011;20737;49.908;8.126;2023-02-24T01:02:24;29.77;;;9.73;;
34491;SDS011;20737;49.908;8.126;2023-02-24T01:04:51;27.17;;;9.88;;
34491;SDS011;20737;49.908;8.126;2023-02-24T01:07:22;32.13;;;11.32;;
34491;SDS011;20737;49.908;8.126;2023-02-24T01:09:54;26.17;;;10.38;;
34491;SDS011;20737;49.908;8.126;2023-02-24T01:12:23;24.65;;;10.02;;
34491;SDS011;20737;49.908;8.126;2023-02-24T01:15:13;24.92;;;9.80;;
34491;SDS011;20737;49.908;8.126;2023-02-24T01:17:41;24.05;;;9.93;;
34491;SDS011;20737;49.908;8.126;2023-02-24T01:20:10;32.35;;;10.07;;
34491;SDS011;20737;49.908;8.126;2023-02-24T01:22:46;26.63;;;10.77;;
34491;SDS011;20737;49.908;8.126;2023-02-24T01:25:15;29.13;;;10.48;;
34491;SDS011;20737;49.908;8.126;2023-02-24T01:27:44;25.23;;;9.93;;
34491;SDS011;20737;49.908;8.126;2023-02-24T01:30:11;24.73;;;9.95;;
34491;SDS011;20737;49.908;8.126;2023-02-24T01:32:40;26.73;;;10.63;;
34491;SDS011;20737;49.908;8.126;2023-02-24T01:35:07;26.50;;;9.45;;
34491;SDS011;20737;49.908;8.126;2023-02-24T01:37:38;21.17;;;8.93;;
34491;SDS011;20737;49.908;8.126;2023-02-24T01:40:09;27.48;;;10.30;;
34491;SDS011;20737;49.908;8.126;2023-02-24T01:42:43;24.35;;;9.90;;
34491;SDS011;20737;49.908;8.126;2023-02-24T01:45:15;30.27;;;11.25;;
34491;SDS011;20737;49.908;8.126;2023-02-24T01:47:45;26.80;;;10.00;;
34491;SDS011;20737;49.908;8.126;2023-02-24T01:50:14;25.08;;;9.25;;
34491;SDS011;20737;49.908;8.126;2023-02-24T01:52:45;23.70;;;9.32;;
34491;SDS011;20737;49.908;8.126;2023-02-24T01:55:17;24.88;;;9.50;;
34491;SDS011;20737;49.908;8.126;2023-02-24T01:57:50;25.45;;;9.43;;
34491;SDS011;20737;49.908;8.126;2023-02-24T02:00:19;28.48;;;10.35;;
34491;SDS011;20737;49.908;8.126;2023-02-24T02:03:03;26.02;;;10.13;;
34491;SDS011;20737;49.908;8.126;2023-02-24T02:05:36;28.08;;;10.55;;
34491;SDS011;20737;49.908;8.126;2023-02-24T02:08:04;28.73;;;10.30;;
34491;SDS011;20737;49.908;8.126;2023-02-24T02:10:33;21.70;;;8.65;;
34491;SDS011;20737;49.908;8.126;2023-02-24T02:13:03;29.55;;;10.52;;
34491;SDS011;20737;49.908;8.126;2023-02-24T02:15:31;26.95;;;10.50;;
34491;SDS011;20737;49.908;8.126;2023-02-24T02:18:08;26.40;;;9.65;;
34491;SDS011;20737;49.908;8.126;2023-02-24T02:24:16;27.77;;;9.32;;
34491;SDS011;20737;49.908;8.126;2023-02-24T02:27:00;25.83;;;9.25;;
34491;SDS011;20737;49.908;8.126;2023-02-24T02:29:49;26.10;;;9.05;;
34491;SDS011;20737;49.908;8.126;2023-02-24T02:32:42;30.37;;;10.17;;
34491;SDS011;20737;49.908;8.126;2023-02-24T02:35:38;24.63;;;9.30;;
34491;SDS011;20737;49.908;8.126;2023-02-24T02:38:14;24.58;;;9.45;;
34491;SDS011;20737;49.908;8.126;2023-02-24T02:40:58;24.80;;;9.30;;
34491;SDS011;20737;49.908;8.126;2023-02-24T02:43:39;27.42;;;10.25;;
34491;SDS011;20737;49.908;8.126;2023-02-24T02:46:13;25.92;;;8.38;;
34491;SDS011;20737;49.908;8.126;2023-02-24T02:48:44;33.17;;;8.60;;
34491;SDS011;20737;49.908;8.126;2023-02-24T02:51:16;31.30;;;10.98;;
34491;SDS011;20737;49.908;8.126;2023-02-24T02:53:47;23.58;;;9.15;;
34491;SDS011;20737;49.908;8.126;2023-02-24T02:56:21;24.75;;;9.25;;
34491;SDS011;20737;49.908;8.126;2023-02-24T03:01:22;26.70;;;9.10;;
34491;SDS011;20737;49.908;8.126;2023-02-24T03:03:56;24.85;;;9.90;;
34491;SDS011;20737;49.908;8.126;2023-02-24T03:06:30;27.45;;;11.20;;
34491;SDS011;20737;49.908;8.126;2023-02-24T03:09:00;29.55;;;10.70;;
34491;SDS011;20737;49.908;8.126;2023-02-24T03:11:35;30.33;;;10.68;;
34491;SDS011;20737;49.908;8.126;2023-02-24T03:14:02;28.58;;;10.07;;
34491;SDS011;20737;49.908;8.126;2023-02-24T03:16:36;29.67;;;10.77;;
34491;SDS011;20737;49.908;8.126;2023-02-24T03:19:06;33.17;;;11.07;;
34491;SDS011;20737;49.908;8.126;2023-02-24T03:21:37;27.80;;;10.55;;
34491;SDS011;20737;49.908;8.126;2023-02-24T03:24:05;33.97;;;11.82;;
34491;SDS011;20737;49.908;8.126;2023-02-24T03:26:36;26.52;;;10.70;;
34491;SDS011;20737;49.908;8.126;2023-02-24T03:29:07;31.25;;;11.13;;
34491;SDS011;20737;49.908;8.126;2023-02-24T03:31:43;36.13;;;11.55;;
34491;SDS011;20737;49.908;8.126;2023-02-24T03:34:14;31.42;;;10.75;;
34491;SDS011;20737;49.908;8.126;2023-02-24T03:36:49;32.20;;;11.32;;
34491;SDS011;20737;49.908;8.126;2023-02-24T03:39:18;29.92;;;11.00;;
34491;SDS011;20737;49.908;8.126;2023-02-24T03:41:47;32.63;;;11.82;;
34491;SDS011;20737;49.908;8.126;2023-02-24T03:44:20;32.95;;;12.43;;
34491;SDS011;20737;49.908;8.126;2023-02-24T03:46:48;35.67;;;12.40;;
34491;SDS011;20737;49.908;8.126;2023-02-24T03:49:19;35.95;;;11.43;;
34491;SDS011;20737;49.908;8.126;2023-02-24T03:51:52;32.13;;;12.35;;
34491;SDS011;20737;49.908;8.126;2023-02-24T03:54:44;33.63;;;12.25;;
34491;SDS011;20737;49.908;8.126;2023-02-24T03:57:24;32.67;;;12.88;;
34491;SDS011;20737;49.908;8.126;2023-02-24T04:00:01;30.48;;;11.43;;
34491;SDS011;20737;49.908;8.126;2023-02-24T04:02:47;32.90;;;11.75;;
34491;SDS011;20737;49.908;8.126;2023-02-24T04:05:21;33.20;;;12.70;;
34491;SDS011;20737;49.908;8.126;2023-02-24T04:07:56;31.95;;;12.20;;
34491;SDS011;20737;49.908;8.126;2023-02-24T04:10:26;28.23;;;11.40;;
34491;SDS011;20737;49.908;8.126;2023-02-24T04:13:03;35.28;;;12.57;;
34491;SDS011;20737;49.908;8.126;2023-02-24T04:15:39;32.58;;;12.43;;
34491;SDS011;20737;49.908;8.126;2023-02-24T04:18:11;34.88;;;11.40;;
34491;SDS011;20737;49.908;8.126;2023-02-24T04:20:40;34.53;;;12.05;;
34491;SDS011;20737;49.908;8.126;2023-02-24T04:23:11;33.20;;;11.73;;
34491;SDS011;20737;49.908;8.126;2023-02-24T04:25:44;34.08;;;12.73;;
34491;SDS011;20737;49.908;8.126;2023-02-24T04:28:16;38.13;;;11.97;;
34491;SDS011;20737;49.908;8.126;2023-02-24T04:30:48;36.28;;;12.52;;
34491;SDS011;20737;49.908;8.126;2023-02-24T04:33:18;36.70;;;12.18;;
34491;SDS011;20737;49.908;8.126;2023-02-24T04:35:47;43.00;;;14.68;;
34491;SDS011;20737;49.908;8.126;2023-02-24T04:38:16;36.83;;;12.32;;
34491;SDS011;20737;49.908;8.126;2023-02-24T04:40:44;34.35;;;12.88;;
34491;SDS011;20737;49.908;8.126;2023-02-24T04:43:11;39.85;;;14.48;;
34491;SDS011;20737;49.908;8.126;2023-02-24T04:45:41;43.08;;;15.77;;
34491;SDS011;20737;49.908;8.126;2023-02-24T04:48:09;41.35;;;12.85;;
34491;SDS011;20737;49.908;8.126;2023-02-24T04:50:38;38.58;;;13.88;;
34491;SDS011;20737;49.908;8.126;2023-02-24T04:53:08;41.00;;;14.43;;
34491;SDS011;20737;49.908;8.126;2023-02-24T04:55:38;45.53;;;14.55;;
34491;SDS011;20737;49.908;8.126;2023-02-24T04:58:07;40.47;;;14.18;;
34491;SDS011;20737;49.908;8.126;2023-02-24T05:00:43;34.67;;;13.15;;
34491;SDS011;20737;49.908;8.126;2023-02-24T05:03:13;37.85;;;13.95;;
34491;SDS011;20737;49.908;8.126;2023-02-24T05:05:46;35.95;;;13.18;;
34491;SDS011;20737;49.908;8.126;2023-02-24T05:08:16;37.35;;;12.82;;
34491;SDS011;20737;49.908;8.126;2023-02-24T05:10:45;35.78;;;13.80;;
34491;SDS011;20737;49.908;8.126;2023-02-24T05:13:13;35.72;;;13.95;;
34491;SDS011;20737;49.908;8.126;2023-02-24T05:15:42;35.08;;;13.57;;
34491;SDS011;20737;49.908;8.126;2023-02-24T05:18:10;39.65;;;13.50;;
34491;SDS011;20737;49.908;8.126;2023-02-24T05:20:39;36.95;;;13.75;;
34491;SDS011;20737;49.908;8.126;2023-02-24T05:23:25;37.42;;;14.35;;
34491;SDS011;20737;49.908;8.126;2023-02-24T05:25:54;41.80;;;14.80;;
34491;SDS011;20737;49.908;8.126;2023-02-24T05:28:24;37.13;;;13.60;;
34491;SDS011;20737;49.908;8.126;2023-02-24T05:31:02;37.83;;;14.30;;
34491;SDS011;20737;49.908;8.126;2023-02-24T05:33:33;39.47;;;13.68;;
34491;SDS011;20737;49.908;8.126;2023-02-24T05:36:03;40.15;;;13.85;;
34491;SDS011;20737;49.908;8.126;2023-02-24T05:38:33;36.90;;;13.27;;
34491;SDS011;20737;49.908;8.126;2023-02-24T05:41:06;40.70;;;14.27;;
34491;SDS011;20737;49.908;8.126;2023-02-24T05:43:39;37.40;;;13.02;;
34491;SDS011;20737;49.908;8.126;2023-02-24T05:46:05;38.13;;;14.52;;
34491;SDS011;20737;49.908;8.126;2023-02-24T05:48:32;37.05;;;14.57;;
34491;SDS011;20737;49.908;8.126;2023-02-24T05:51:05;37.28;;;13.85;;
34491;SDS011;20737;49.908;8.126;2023-02-24T05:53:32;45.53;;;13.57;;
34491;SDS011;20737;49.908;8.126;2023-02-24T05:56:02;41.25;;;15.95;;
34491;SDS011;20737;49.908;8.126;2023-02-24T05:58:31;36.38;;;13.38;;
34491;SDS011;20737;49.908;8.126;2023-02-24T06:01:12;34.55;;;13.02;;
34491;SDS011;20737;49.908;8.126;2023-02-24T06:03:40;38.45;;;13.00;;
34491;SDS011;20737;49.908;8.126;2023-02-24T06:06:11;34.30;;;12.25;;
34491;SDS011;20737;49.908;8.126;2023-02-24T06:08:44;33.25;;;13.95;;
34491;SDS011;20737;49.908;8.126;2023-02-24T06:11:16;36.67;;;13.50;;
34491;SDS011;20737;49.908;8.126;2023-02-24T06:13:48;39.15;;;13.38;;
34491;SDS011;20737;49.908;8.126;2023-02-24T06:16:15;34.97;;;12.98;;
34491;SDS011;20737;49.908;8.126;2023-02-24T06:18:46;38.20;;;12.52;;
34491;SDS011;20737;49.908;8.126;2023-02-24T06:21:14;35.58;;;13.55;;
34491;SDS011;20737;49.908;8.126;2023-02-24T06:23:41;38.08;;;13.82;;
34491;SDS011;20737;49.908;8.126;2023-02-24T06:26:09;35.50;;;13.57;;
34491;SDS011;20737;49.908;8.126;2023-02-24T06:28:37;37.75;;;12.95;;
34491;SDS011;20737;49.908;8.126;2023-02-24T06:31:08;35.13;;;13.18;;
34491;SDS011;20737;49.908;8.126;2023-02-24T06:33:36;39.25;;;14.75;;
34491;SDS011;20737;49.908;8.126;2023-02-24T06:36:04;39.97;;;14.32;;
34491;SDS011;20737;49.908;8.126;2023-02-24T06:38:32;38.53;;;13.48;;
34491;SDS011;20737;49.908;8.126;2023-02-24T06:41:00;38.10;;;13.82;;
34491;SDS011;20737;49.908;8.126;2023-02-24T06:43:28;37.25;;;14.45;;
34491;SDS011;20737;49.908;8.126;2023-02-24T06:45:56;36.33;;;13.63;;
34491;SDS011;20737;49.908;8.126;2023-02-24T06:48:25;32.50;;;13.55;;
34491;SDS011;20737;49.908;8.126;2023-02-24T06:50:52;36.33;;;13.75;;
34491;SDS011;20737;49.908;8.126;2023-02-24T06:53:19;35.05;;;13.10;;
34491;SDS011;20737;49.908;8.126;2023-02-24T06:55:46;35.50;;;13.65;;
34491;SDS011;20737;49.908;8.126;2023-02-24T06:58:16;40.10;;;15.68;;
34491;SDS011;20737;49.908;8.126;2023-02-24T07:00:44;42.38;;;15.15;;
34491;SDS011;20737;49.908;8.126;2023-02-24T07:03:21;31.10;;;12.32;;
34491;SDS011;20737;49.908;8.126;2023-02-24T07:05:50;35.78;;;12.65;;
34491;SDS011;20737;49.908;8.126;2023-02-24T07:08:35;31.98;;;12.25;;
34491;SDS011;20737;49.908;8.126;2023-02-24T07:11:03;36.60;;;13.60;;
34491;SDS011;20737;49.908;8.126;2023-02-24T07:13:33;32.70;;;13.10;;
34491;SDS011;20737;49.908;8.126;2023-02-24T07:16:01;34.97;;;13.25;;
34491;SDS011;20737;49.908;8.126;2023-02-24T07:18:31;34.53;;;13.43;;
34491;SDS011;20737;49.908;8.126;2023-02-24T07:21:08;36.22;;;12.43;;
34491;SDS011;20737;49.908;8.126;2023-02-24T07:23:40;37.17;;;13.32;;
34491;SDS011;20737;49.908;8.126;2023-02-24T07:26:09;35.10;;;13.27;;
34491;SDS011;20737;49.908;8.126;2023-02-24T07:28:42;32.63;;;13.25;;
34491;SDS011;20737;49.908;8.126;2023-02-24T07:31:10;38.25;;;13.05;;
34491;SDS011;20737;49.908;8.126;2023-02-24T07:33:40;36.78;;;13.70;;
34491;SDS011;20737;49.908;8.126;2023-02-24T07:36:14;35.63;;;13.27;;
34491;SDS011;20737;49.908;8.126;2023-02-24T07:38:47;36.33;;;13.43;;
34491;SDS011;20737;49.908;8.126;2023-02-24T07:41:14;35.25;;;12.60;;
34491;SDS011;20737;49.908;8.126;2023-02-24T07:43:43;36.05;;;14.50;;
34491;SDS011;20737;49.908;8.126;2023-02-24T07:46:11;36.22;;;13.88;;
34491;SDS011;20737;49.908;8.126;2023-02-24T07:48:40;39.70;;;15.95;;
34491;SDS011;20737;49.908;8.126;2023-02-24T07:51:08;39.58;;;14.05;;
34491;SDS011;20737;49.908;8.126;2023-02-24T07:53:39;40.78;;;17.10;;
34491;SDS011;20737;49.908;8.126;2023-02-24T07:56:06;38.90;;;14.60;;
34491;SDS011;20737;49.908;8.126;2023-02-24T07:58:40;40.60;;;15.32;;
34491;SDS011;20737;49.908;8.126;2023-02-24T08:01:08;38.03;;;15.02;;
34491;SDS011;20737;49.908;8.126;2023-02-24T08:06:08;31.23;;;12.57;;
34491;SDS011;20737;49.908;8.126;2023-02-24T08:08:41;30.98;;;11.85;;
34491;SDS011;20737;49.908;8.126;2023-02-24T08:11:25;34.53;;;12.30;;
34491;SDS011;20737;49.908;8.126;2023-02-24T08:13:58;36.67;;;12.32;;
34491;SDS011;20737;49.908;8.126;2023-02-24T08:16:26;33.75;;;13.48;;
34491;SDS011;20737;49.908;8.126;2023-02-24T08:19:03;37.42;;;13.70;;
34491;SDS011;20737;49.908;8.126;2023-02-24T08:21:30;36.95;;;14.10;;
34491;SDS011;20737;49.908;8.126;2023-02-24T08:24:03;34.08;;;13.73;;
34491;SDS011;20737;49.908;8.126;2023-02-24T08:26:31;36.00;;;12.60;;
34491;SDS011;20737;49.908;8.126;2023-02-24T08:29:05;37.55;;;13.68;;
34491;SDS011;20737;49.908;8.126;2023-02-24T08:31:32;34.58;;;13.23;;
34491;SDS011;20737;49.908;8.126;2023-02-24T08:33:59;39.75;;;14.10;;
34491;SDS011;20737;49.908;8.126;2023-02-24T08:36:28;34.97;;;14.52;;
34491;SDS011;20737;49.908;8.126;2023-02-24T08:38:56;30.80;;;13.27;;
34491;SDS011;20737;49.908;8.126;2023-02-24T08:41:29;34.83;;;14.10;;
34491;SDS011;20737;49.908;8.126;2023-02-24T08:44:12;33.97;;;12.80;;
34491;SDS011;20737;49.908;8.126;2023-02-24T08:46:43;34.00;;;12.88;;
34491;SDS011;20737;49.908;8.126;2023-02-24T08:49:14;32.25;;;12.90;;
34491;SDS011;20737;49.908;8.126;2023-02-24T08:51:42;36.00;;;14.48;;
34491;SDS011;20737;49.908;8.126;2023-02-24T08:54:10;36.53;;;13.85;;
34491;SDS011;20737;49.908;8.126;2023-02-24T08:56:42;34.70;;;14.55;;
34491;SDS011;20737;49.908;8.126;2023-02-24T08:59:13;35.53;;;14.23;;
34491;SDS011;20737;49.908;8.126;2023-02-24T09:02:02;35.75;;;13.32;;
34491;SDS011;20737;49.908;8.126;2023-02-24T09:04:52;34.05;;;14.13;;
34491;SDS011;20737;49.908;8.126;2023-02-24T09:07:28;39.30;;;13.77;;
34491;SDS011;20737;49.908;8.126;2023-02-24T09:09:59;34.00;;;13.93;;
34491;SDS011;20737;49.908;8.126;2023-02-24T09:12:31;38.22;;;14.02;;
34491;SDS011;20737;49.908;8.126;2023-02-24T09:15:05;38.40;;;14.73;;
34491;SDS011;20737;49.908;8.126;2023-02-24T09:17:35;37.90;;;14.27;;
34491;SDS011;20737;49.908;8.126;2023-02-24T09:20:15;37.42;;;14.55;;
34491;SDS011;20737;49.908;8.126;2023-02-24T09:23:16;29.92;;;12.13;;
34491;SDS011;20737;49.908;8.126;2023-02-24T09:25:45;35.10;;;13.32;;
34491;SDS011;20737;49.908;8.126;2023-02-24T09:28:16;35.00;;;13.38;;
34491;SDS011;20737;49.908;8.126;2023-02-24T09:30:44;32.70;;;13.13;;
34491;SDS011;20737;49.908;8.126;2023-02-24T09:33:17;34.95;;;15.10;;
34491;SDS011;20737;49.908;8.126;2023-02-24T09:35:47;32.35;;;12.23;;
34491;SDS011;20737;49.908;8.126;2023-02-24T09:38:32;31.88;;;12.48;;
34491;SDS011;20737;49.908;8.126;2023-02-24T09:41:22;35.38;;;13.10;;
34491;SDS011;20737;49.908;8.126;2023-02-24T09:43:58;27.08;;;11.57;;
34491;SDS011;20737;49.908;8.126;2023-02-24T09:46:32;28.67;;;11.90;;
34491;SDS011;20737;49.908;8.126;2023-02-24T09:49:05;32.67;;;12.63;;
34491;SDS011;20737;49.908;8.126;2023-02-24T09:51:39;32.20;;;13.18;;
34491;SDS011;20737;49.908;8.126;2023-02-24T09:54:11;27.75;;;11.30;;
34491;SDS011;20737;49.908;8.126;2023-02-24T09:56:41;27.90;;;12.10;;
34491;SDS011;20737;49.908;8.126;2023-02-24T09:59:38;30.38;;;12.20;;
34491;SDS011;20737;49.908;8.126;2023-02-24T10:02:18;33.03;;;12.80;;
34491;SDS011;20737;49.908;8.126;2023-02-24T10:04:54;28.15;;;12.25;;
34491;SDS011;20737;49.908;8.126;2023-02-24T10:07:32;30.08;;;12.02;;
34491;SDS011;20737;49.908;8.126;2023-02-24T10:10:10;28.75;;;12.82;;
34491;SDS011;20737;49.908;8.126;2023-02-24T10:12:45;29.98;;;11.43;;
34491;SDS011;20737;49.908;8.126;2023-02-24T10:15:18;29.33;;;11.80;;
34491;SDS011;20737;49.908;8.126;2023-02-24T10:18:19;31.23;;;11.55;;
34491;SDS011;20737;49.908;8.126;2023-02-24T10:20:53;27.65;;;11.75;;
34491;SDS011;20737;49.908;8.126;2023-02-24T10:23:27;29.70;;;12.00;;
34491;SDS011;20737;49.908;8.126;2023-02-24T10:26:00;29.83;;;12.50;;
34491;SDS011;20737;49.908;8.126;2023-02-24T10:28:36;27.40;;;11.43;;
34491;SDS011;20737;49.908;8.126;2023-02-24T10:31:11;30.67;;;10.90;;
34491;SDS011;20737;49.908;8.126;2023-02-24T10:33:53;27.95;;;11.63;;
34491;SDS011;20737;49.908;8.126;2023-02-24T10:36:24;30.38;;;11.25;;
34491;SDS011;20737;49.908;8.126;2023-02-24T10:38:59;29.13;;;10.65;;
34491;SDS011;20737;49.908;8.126;2023-02-24T10:41:39;29.08;;;11.88;;
34491;SDS011;20737;49.908;8.126;2023-02-24T10:44:11;29.85;;;11.98;;
34491;SDS011;20737;49.908;8.126;2023-02-24T10:46:57;26.00;;;10.68;;
34491;SDS011;20737;49.908;8.126;2023-02-24T10:49:38;21.67;;;9.40;;
34491;SDS011;20737;49.908;8.126;2023-02-24T10:52:09;29.02;;;11.90;;
34491;SDS011;20737;49.908;8.126;2023-02-24T10:54:57;26.33;;;10.35;;
34491;SDS011;20737;49.908;8.126;2023-02-24T10:57:48;22.63;;;9.18;;
34491;SDS011;20737;49.908;8.126;2023-02-24T11:00:35;24.52;;;9.05;;
34491;SDS011;20737;49.908;8.126;2023-02-24T11:03:25;23.23;;;9.55;;
34491;SDS011;20737;49.908;8.126;2023-02-24T11:06:16;25.90;;;9.45;;
34491;SDS011;20737;49.908;8.126;2023-02-24T11:08:57;18.67;;;8.20;;
34491;SDS011;20737;49.908;8.126;2023-02-24T11:11:43;20.83;;;8.40;;
34491;SDS011;20737;49.908;8.126;2023-02-24T11:14:28;21.30;;;9.00;;
34491;SDS011;20737;49.908;8.126;2023-02-24T11:19:46;17.00;;;7.43;;
34491;SDS011;20737;49.908;8.126;2023-02-24T11:22:16;20.60;;;9.32;;
34491;SDS011;20737;49.908;8.126;2023-02-24T11:24:46;19.70;;;8.90;;
34491;SDS011;20737;49.908;8.126;2023-02-24T11:27:16;22.23;;;9.10;;
34491;SDS011;20737;49.908;8.126;2023-02-24T11:29:59;15.25;;;7.47;;
34491;SDS011;20737;49.908;8.126;2023-02-24T11:32:42;14.57;;;7.03;;
34491;SDS011;20737;49.908;8.126;2023-02-24T11:35:22;14.20;;;6.57;;
34491;SDS011;20737;49.908;8.126;2023-02-24T11:37:59;14.40;;;6.90;;
34491;SDS011;20737;49.908;8.126;2023-02-24T11:40:32;20.20;;;6.10;;
34491;SDS011;20737;49.908;8.126;2023-02-24T11:43:04;12.52;;;5.70;;
34491;SDS011;20737;49.908;8.126;2023-02-24T11:45:38;14.35;;;6.10;;
34491;SDS011;20737;49.908;8.126;2023-02-24T11:48:09;11.60;;;5.90;;
34491;SDS011;20737;49.908;8.126;2023-02-24T11:50:42;10.35;;;5.32;;
34491;SDS011;20737;49.908;8.126;2023-02-24T11:53:21;11.80;;;5.95;;
34491;SDS011;20737;49.908;8.126;2023-02-24T11:55:54;9.93;;;6.25;;
34491;SDS011;20737;49.908;8.126;2023-02-24T11:58:26;10.38;;;6.63;;
34491;SDS011;20737;49.908;8.126;2023-02-24T12:00:58;11.80;;;6.07;;
34491;SDS011;20737;49.908;8.126;2023-02-24T12:03:29;12.93;;;5.32;;
34491;SDS011;20737;49.908;8.126;2023-02-24T12:06:08;12.68;;;6.35;;
34491;SDS011;20737;49.908;8.126;2023-02-24T12:08:42;15.27;;;6.82;;
34491;SDS011;20737;49.908;8.126;2023-02-24T12:11:15;10.82;;;5.55;;
34491;SDS011;20737;49.908;8.126;2023-02-24T12:13:47;9.75;;;5.18;;
34491;SDS011;20737;49.908;8.126;2023-02-24T12:16:20;11.85;;;5.40;;
34491;SDS011;20737;49.908;8.126;2023-02-24T12:18:51;14.10;;;5.78;;
34491;SDS011;20737;49.908;8.126;2023-02-24T12:21:25;10.05;;;5.57;;
34491;SDS011;20737;49.908;8.126;2023-02-24T12:23:54;12.15;;;6.00;;
34491;SDS011;20737;49.908;8.126;2023-02-24T12:26:23;10.63;;;5.15;;
34491;SDS011;20737;49.908;8.126;2023-02-24T12:31:52;12.45;;;5.57;;
34491;SDS011;20737;49.908;8.126;2023-02-24T12:34:37;9.60;;;5.15;;
34491;SDS011;20737;49.908;8.126;2023-02-24T12:37:38;10.13;;;4.95;;
34491;SDS011;20737;49.908;8.126;2023-02-24T12:40:19;8.40;;;4.07;;
34491;SDS011;20737;49.908;8.126;2023-02-24T12:42:56;8.73;;;4.05;;
34491;SDS011;20737;49.908;8.126;2023-02-24T12:45:32;8.23;;;3.80;;
34491;SDS011;20737;49.908;8.126;2023-02-24T12:48:14;8.90;;;3.90;;
34491;SDS011;20737;49.908;8.126;2023-02-24T12:50:55;7.82;;;3.72;;
34491;SDS011;20737;49.908;8.126;2023-02-24T12:53:31;7.05;;;3.83;;
34491;SDS011;20737;49.908;8.126;2023-02-24T12:56:08;8.00;;;3.75;;
34491;SDS011;20737;49.908;8.126;2023-02-24T12:58:43;9.48;;;4.25;;
34491;SDS011;20737;49.908;8.126;2023-02-24T13:01:15;8.25;;;3.55;;
34491;SDS011;20737;49.908;8.126;2023-02-24T13:06:33;8.27;;;4.40;;
34491;SDS011;20737;49.908;8.126;2023-02-24T13:09:13;9.10;;;4.13;;
34491;SDS011;20737;49.908;8.126;2023-02-24T13:11:48;9.70;;;4.45;;
34491;SDS011;20737;49.908;8.126;2023-02-24T13:14:22;8.95;;;4.10;;
34491;SDS011;20737;49.908;8.126;2023-02-24T13:17:01;8.52;;;4.43;;
34491;SDS011;20737;49.908;8.126;2023-02-24T13:19:30;8.43;;;4.28;;
34491;SDS011;20737;49.908;8.126;2023-02-24T13:21:58;8.80;;;4.32;;
34491;SDS011;20737;49.908;8.126;2023-02-24T13:24:31;8.85;;;4.28;;
34491;SDS011;20737;49.908;8.126;2023-02-24T13:27:05;13.77;;;4.82;;
34491;SDS011;20737;49.908;8.126;2023-02-24T13:32:24;7.88;;;4.07;;
34491;SDS011;20737;49.908;8.126;2023-02-24T13:34:56;9.25;;;4.22;;
34491;SDS011;20737;49.908;8.126;2023-02-24T13:37:25;9.35;;;4.63;;
34491;SDS011;20737;49.908;8.126;2023-02-24T13:39:59;6.75;;;3.63;;
34491;SDS011;20737;49.908;8.126;2023-02-24T13:42:40;7.75;;;3.92;;
34491;SDS011;20737;49.908;8.126;2023-02-24T13:45:18;11.35;;;4.93;;
34491;SDS011;20737;49.908;8.126;2023-02-24T13:51:05;11.77;;;5.05;;
34491;SDS011;20737;49.908;8.126;2023-02-24T13:53:47;10.60;;;4.80;;
34491;SDS011;20737;49.908;8.126;2023-02-24T13:56:28;8.00;;;4.43;;
34491;SDS011;20737;49.908;8.126;2023-02-24T13:59:08;10.15;;;4.50;;
34491;SDS011;20737;49.908;8.126;2023-02-24T14:01:50;9.23;;;4.53;;
34491;SDS011;20737;49.908;8.126;2023-02-24T14:06:51;9.05;;;4.53;;
34491;SDS011;20737;49.908;8.126;2023-02-24T14:09:21;9.60;;;4.80;;
34491;SDS011;20737;49.908;8.126;2023-02-24T14:11:54;9.63;;;4.30;;
34491;SDS011;20737;49.908;8.126;2023-02-24T14:14:24;8.68;;;4.28;;
34491;SDS011;20737;49.908;8.126;2023-02-24T14:16:52;9.57;;;4.10;;
34491;SDS011;20737;49.908;8.126;2023-02-24T14:19:18;8.65;;;4.57;;
34491;SDS011;20737;49.908;8.126;2023-02-24T14:21:46;6.50;;;3.72;;
34491;SDS011;20737;49.908;8.126;2023-02-24T14:24:16;10.18;;;4.05;;
34491;SDS011;20737;49.908;8.126;2023-02-24T14:26:46;5.75;;;3.13;;
34491;SDS011;20737;49.908;8.126;2023-02-24T14:29:18;7.28;;;3.80;;
34491;SDS011;20737;49.908;8.126;2023-02-24T14:31:47;8.18;;;3.63;;
34491;SDS011;20737;49.908;8.126;2023-02-24T14:34:16;6.80;;;3.92;;
34491;SDS011;20737;49.908;8.126;2023-02-24T14:36:45;6.70;;;3.53;;
34491;SDS011;20737;49.908;8.126;2023-02-24T14:39:15;7.38;;;4.18;;
34491;SDS011;20737;49.908;8.126;2023-02-24T14:41:44;10.88;;;4.40;;
34491;SDS011;20737;49.908;8.126;2023-02-24T14:44:21;9.38;;;4.07;;
34491;SDS011;20737;49.908;8.126;2023-02-24T14:46:53;7.72;;;3.90;;
34491;SDS011;20737;49.908;8.126;2023-02-24T14:49:22;6.82;;;3.40;;
34491;SDS011;20737;49.908;8.126;2023-02-24T14:51:52;7.53;;;3.20;;
34491;SDS011;20737;49.908;8.126;2023-02-24T14:54:31;5.17;;;2.73;;
34491;SDS011;20737;49.908;8.126;2023-02-24T14:57:03;5.53;;;2.78;;
34491;SDS011;20737;49.908;8.126;2023-02-24T14:59:33;4.82;;;2.70;;
34491;SDS011;20737;49.908;8.126;2023-02-24T15:02:02;6.53;;;3.13;;
34491;SDS011;20737;49.908;8.126;2023-02-24T15:04:39;5.78;;;2.78;;
34491;SDS011;20737;49.908;8.126;2023-02-24T15:07:13;6.75;;;3.47;;
34491;SDS011;20737;49.908;8.126;2023-02-24T15:09:43;4.95;;;3.00;;
34491;SDS011;20737;49.908;8.126;2023-02-24T15:12:21;6.95;;;3.33;;
34491;SDS011;20737;49.908;8.126;2023-02-24T15:14:55;6.30;;;3.33;;
34491;SDS011;20737;49.908;8.126;2023-02-24T15:17:25;5.43;;;2.45;;
34491;SDS011;20737;49.908;8.126;2023-02-24T15:19:55;8.57;;;4.22;;
34491;SDS011;20737;49.908;8.126;2023-02-24T15:22:24;4.60;;;2.95;;
34491;SDS011;20737;49.908;8.126;2023-02-24T15:24:53;4.72;;;2.47;;
34491;SDS011;20737;49.908;8.126;2023-02-24T15:27:24;4.97;;;3.17;;
34491;SDS011;20737;49.908;8.126;2023-02-24T15:29:58;5.38;;;2.25;;